sensor_id;sensor_type;location;lat;lon;timestamp;pressure;altitude;pressure_sealevel;temperature;humidity
47430;BME280;33181;49.246;7.372;2023-04-19T00:00:41;99406.88;;;10.59;76.73
47430;BME280;33181;49.246;7.372;2023-04-19T00:03:09;99405.72;;;10.51;77.01
47430;BME280;33181;49.246;7.372;2023-04-19T00:05:35;99416.09;;;10.52;77.21
47430;BME280;33181;49.246;7.372;2023-04-19T00:08:04;99404.88;;;10.50;77.27
47430;BME280;33181;49.246;7.372;2023-04-19T00:10:30;99406.66;;;10.50;77.17
47430;BME280;33181;49.246;7.372;2023-04-19T00:12:56;99406.44;;;10.53;77.31
47430;BME280;33181;49.246;7.372;2023-04-19T00:15:21;99403.59;;;10.56;77.31
47430;BME280;33181;49.246;7.372;2023-04-19T00:17:47;99404.16;;;10.48;77.50
47430;BME280;33181;49.246;7.372;2023-04-19T00:20:13;99407.31;;;10.53;77.21
47430;BME280;33181;49.246;7.372;2023-04-19T00:22:39;99400.91;;;10.44;77.72
47430;BME280;33181;49.246;7.372;2023-04-19T00:25:05;99404.25;;;10.47;77.63
47430;BME280;33181;49.246;7.372;2023-04-19T00:27:33;99402.69;;;10.44;77.69
47430;BME280;33181;49.246;7.372;2023-04-19T00:30:00;99399.84;;;10.47;77.70
47430;BME280;33181;49.246;7.372;2023-04-19T00:32:26;99398.69;;;10.51;77.80
47430;BME280;33181;49.246;7.372;2023-04-19T00:34:52;99401.19;;;10.53;77.44
47430;BME280;33181;49.246;7.372;2023-04-19T00:37:17;99400.13;;;10.55;77.61
47430;BME280;33181;49.246;7.372;2023-04-19T00:39:43;99396.03;;;10.51;77.52
47430;BME280;33181;49.246;7.372;2023-04-19T00:42:09;99398.16;;;10.46;78.06
47430;BME280;33181;49.246;7.372;2023-04-19T00:44:34;99389.34;;;10.47;77.89
47430;BME280;33181;49.246;7.372;2023-04-19T00:47:00;99398.06;;;10.48;77.82
47430;BME280;33181;49.246;7.372;2023-04-19T00:49:26;99395.44;;;10.48;78.14
47430;BME280;33181;49.246;7.372;2023-04-19T00:51:52;99394.69;;;10.46;78.22
47430;BME280;33181;49.246;7.372;2023-04-19T00:54:19;99393.75;;;10.47;78.12
47430;BME280;33181;49.246;7.372;2023-04-19T00:56:45;99389.44;;;10.46;77.93
47430;BME280;33181;49.246;7.372;2023-04-19T00:59:13;99386.09;;;10.43;78.17
47430;BME280;33181;49.246;7.372;2023-04-19T01:01:40;99382.72;;;10.41;78.40
47430;BME280;33181;49.246;7.372;2023-04-19T01:04:07;99392.06;;;10.46;78.23
47430;BME280;33181;49.246;7.372;2023-04-19T01:06:34;99386.31;;;10.40;78.37
47430;BME280;33181;49.246;7.372;2023-04-19T01:09:00;99388.94;;;10.40;78.41
47430;BME280;33181;49.246;7.372;2023-04-19T01:11:27;99382.81;;;10.40;78.71
47430;BME280;33181;49.246;7.372;2023-04-19T01:13:54;99385.22;;;10.43;78.33
47430;BME280;33181;49.246;7.372;2023-04-19T01:16:20;99385.44;;;10.40;78.70
47430;BME280;33181;49.246;7.372;2023-04-19T01:18:46;99389.97;;;10.38;78.75
47430;BME280;33181;49.246;7.372;2023-04-19T01:21:12;99386.41;;;10.39;78.80
47430;BME280;33181;49.246;7.372;2023-04-19T01:23:37;99386.19;;;10.42;78.55
47430;BME280;33181;49.246;7.372;2023-04-19T01:26:04;99381.34;;;10.36;78.64
47430;BME280;33181;49.246;7.372;2023-04-19T01:28:31;99380.31;;;10.38;78.78
47430;BME280;33181;49.246;7.372;2023-04-19T01:30:56;99374.94;;;10.40;78.67
47430;BME280;33181;49.246;7.372;2023-04-19T01:33:22;99374.09;;;10.39;78.82
47430;BME280;33181;49.246;7.372;2023-04-19T01:35:48;99373.59;;;10.34;78.94
47430;BME280;33181;49.246;7.372;2023-04-19T01:38:15;99371.25;;;10.42;78.57
47430;BME280;33181;49.246;7.372;2023-04-19T01:40:42;99373.78;;;10.44;78.68
47430;BME280;33181;49.246;7.372;2023-04-19T01:43:13;99366.53;;;10.48;78.20
47430;BME280;33181;49.246;7.372;2023-04-19T01:45:39;99372.22;;;10.41;78.53
47430;BME280;33181;49.246;7.372;2023-04-19T01:48:05;99366.56;;;10.35;78.76
47430;BME280;33181;49.246;7.372;2023-04-19T01:50:34;99362.00;;;10.37;78.77
47430;BME280;33181;49.246;7.372;2023-04-19T01:53:00;99365.31;;;10.28;78.89
47430;BME280;33181;49.246;7.372;2023-04-19T01:55:26;99367.06;;;10.27;78.87
47430;BME280;33181;49.246;7.372;2023-04-19T01:57:51;99357.91;;;10.20;79.31
47430;BME280;33181;49.246;7.372;2023-04-19T02:00:19;99355.41;;;10.18;79.40
47430;BME280;33181;49.246;7.372;2023-04-19T02:02:45;99357.91;;;10.20;79.56
47430;BME280;33181;49.246;7.372;2023-04-19T02:05:11;99351.72;;;10.21;79.24
47430;BME280;33181;49.246;7.372;2023-04-19T02:07:37;99353.41;;;10.22;79.31
47430;BME280;33181;49.246;7.372;2023-04-19T02:10:04;99350.16;;;10.18;79.72
47430;BME280;33181;49.246;7.372;2023-04-19T02:12:31;99346.38;;;10.10;79.74
47430;BME280;33181;49.246;7.372;2023-04-19T02:14:59;99346.66;;;10.18;79.46
47430;BME280;33181;49.246;7.372;2023-04-19T02:17:27;99343.75;;;10.10;79.73
47430;BME280;33181;49.246;7.372;2023-04-19T02:19:53;99342.59;;;10.14;79.75
47430;BME280;33181;49.246;7.372;2023-04-19T02:22:19;99346.06;;;10.14;79.67
47430;BME280;33181;49.246;7.372;2023-04-19T02:24:46;99341.34;;;10.19;79.35
47430;BME280;33181;49.246;7.372;2023-04-19T02:27:12;99339.13;;;10.13;79.46
47430;BME280;33181;49.246;7.372;2023-04-19T02:29:38;99340.78;;;10.14;79.38
47430;BME280;33181;49.246;7.372;2023-04-19T02:32:04;99346.06;;;10.14;79.47
47430;BME280;33181;49.246;7.372;2023-04-19T02:34:34;99343.44;;;10.14;79.20
47430;BME280;33181;49.246;7.372;2023-04-19T02:37:00;99340.72;;;10.03;79.28
47430;BME280;33181;49.246;7.372;2023-04-19T02:39:27;99340.59;;;10.05;79.91
47430;BME280;33181;49.246;7.372;2023-04-19T02:41:52;99345.22;;;10.01;80.12
47430;BME280;33181;49.246;7.372;2023-04-19T02:44:18;99345.84;;;10.05;79.88
47430;BME280;33181;49.246;7.372;2023-04-19T02:46:51;99331.34;;;9.99;79.36
47430;BME280;33181;49.246;7.372;2023-04-19T02:49:19;99337.75;;;10.08;79.27
47430;BME280;33181;49.246;7.372;2023-04-19T02:51:46;99334.31;;;10.07;79.25
47430;BME280;33181;49.246;7.372;2023-04-19T02:54:12;99337.88;;;10.06;79.05
47430;BME280;33181;49.246;7.372;2023-04-19T02:56:38;99335.78;;;9.98;79.46
47430;BME280;33181;49.246;7.372;2023-04-19T02:59:04;99331.06;;;9.91;79.95
47430;BME280;33181;49.246;7.372;2023-04-19T03:01:31;99334.72;;;9.88;79.85
47430;BME280;33181;49.246;7.372;2023-04-19T03:03:57;99342.06;;;9.96;79.63
47430;BME280;33181;49.246;7.372;2023-04-19T03:06:23;99332.94;;;10.02;79.36
47430;BME280;33181;49.246;7.372;2023-04-19T03:08:48;99330.22;;;9.90;79.78
47430;BME280;33181;49.246;7.372;2023-04-19T03:11:17;99336.50;;;9.88;80.04
47430;BME280;33181;49.246;7.372;2023-04-19T03:13:43;99336.81;;;9.83;80.09
47430;BME280;33181;49.246;7.372;2023-04-19T03:16:09;99334.59;;;9.77;80.69
47430;BME280;33181;49.246;7.372;2023-04-19T03:18:35;99334.94;;;9.85;80.42
47430;BME280;33181;49.246;7.372;2023-04-19T03:21:02;99332.09;;;9.88;80.15
47430;BME280;33181;49.246;7.372;2023-04-19T03:23:30;99330.53;;;9.86;80.19
47430;BME280;33181;49.246;7.372;2023-04-19T03:25:56;99323.41;;;9.88;79.82
47430;BME280;33181;49.246;7.372;2023-04-19T03:28:22;99327.59;;;9.78;80.66
47430;BME280;33181;49.246;7.372;2023-04-19T03:30:47;99321.47;;;9.77;80.51
47430;BME280;33181;49.246;7.372;2023-04-19T03:33:13;99322.16;;;9.81;80.55
47430;BME280;33181;49.246;7.372;2023-04-19T03:35:39;99315.09;;;9.81;80.37
47430;BME280;33181;49.246;7.372;2023-04-19T03:38:05;99317.09;;;9.78;80.70
47430;BME280;33181;49.246;7.372;2023-04-19T03:40:32;99317.94;;;9.78;80.62
47430;BME280;33181;49.246;7.372;2023-04-19T03:42:58;99311.44;;;9.71;81.33
47430;BME280;33181;49.246;7.372;2023-04-19T03:45:24;99312.06;;;9.62;81.55
47430;BME280;33181;49.246;7.372;2023-04-19T03:47:51;99302.41;;;9.62;81.55
47430;BME280;33181;49.246;7.372;2023-04-19T03:50:16;99298.19;;;9.60;81.62
47430;BME280;33181;49.246;7.372;2023-04-19T03:52:42;99293.59;;;9.63;81.50
47430;BME280;33181;49.246;7.372;2023-04-19T03:55:09;99289.38;;;9.61;81.57
47430;BME280;33181;49.246;7.372;2023-04-19T03:57:37;99300.19;;;9.56;82.04
47430;BME280;33181;49.246;7.372;2023-04-19T04:00:04;99289.09;;;9.65;81.32
47430;BME280;33181;49.246;7.372;2023-04-19T04:02:37;99293.69;;;9.62;81.65
47430;BME280;33181;49.246;7.372;2023-04-19T04:05:05;99300.00;;;9.59;82.18
47430;BME280;33181;49.246;7.372;2023-04-19T04:07:31;99293.59;;;9.63;81.84
47430;BME280;33181;49.246;7.372;2023-04-19T04:09:56;99296.19;;;9.63;81.77
47430;BME280;33181;49.246;7.372;2023-04-19T04:12:22;99296.75;;;9.56;82.12
47430;BME280;33181;49.246;7.372;2023-04-19T04:14:48;99289.59;;;9.58;82.30
47430;BME280;33181;49.246;7.372;2023-04-19T04:17:14;99292.13;;;9.59;82.02
47430;BME280;33181;49.246;7.372;2023-04-19T04:19:39;99298.81;;;9.63;82.10
47430;BME280;33181;49.246;7.372;2023-04-19T04:22:08;99296.19;;;9.63;81.88
47430;BME280;33181;49.246;7.372;2023-04-19T04:24:38;99295.47;;;9.61;82.16
47430;BME280;33181;49.246;7.372;2023-04-19T04:27:06;99298.63;;;9.66;81.96
47430;BME280;33181;49.246;7.372;2023-04-19T04:29:38;99294.00;;;9.70;81.61
47430;BME280;33181;49.246;7.372;2023-04-19T04:32:06;99296.53;;;9.71;81.32
47430;BME280;33181;49.246;7.372;2023-04-19T04:34:33;99293.16;;;9.69;81.34
47430;BME280;33181;49.246;7.372;2023-04-19T04:37:00;99299.78;;;9.62;82.00
47430;BME280;33181;49.246;7.372;2023-04-19T04:39:27;99298.50;;;9.55;81.91
47430;BME280;33181;49.246;7.372;2023-04-19T04:41:53;99307.03;;;9.59;82.22
47430;BME280;33181;49.246;7.372;2023-04-19T04:44:19;99302.91;;;9.55;82.13
47430;BME280;33181;49.246;7.372;2023-04-19T04:46:47;99306.91;;;9.60;82.05
47430;BME280;33181;49.246;7.372;2023-04-19T04:49:13;99309.53;;;9.60;82.08
47430;BME280;33181;49.246;7.372;2023-04-19T04:51:39;99310.38;;;9.61;82.04
47430;BME280;33181;49.246;7.372;2023-04-19T04:54:05;99304.50;;;9.57;82.01
47430;BME280;33181;49.246;7.372;2023-04-19T04:56:31;99306.91;;;9.60;81.86
47430;BME280;33181;49.246;7.372;2023-04-19T04:58:56;99299.56;;;9.65;81.87
47430;BME280;33181;49.246;7.372;2023-04-19T05:01:22;99310.47;;;9.59;81.74
47430;BME280;33181;49.246;7.372;2023-04-19T05:03:49;99305.66;;;9.66;81.61
47430;BME280;33181;49.246;7.372;2023-04-19T05:06:15;99306.91;;;9.60;81.92
47430;BME280;33181;49.246;7.372;2023-04-19T05:08:41;99300.41;;;9.66;81.76
47430;BME280;33181;49.246;7.372;2023-04-19T05:11:07;99309.31;;;9.63;81.82
47430;BME280;33181;49.246;7.372;2023-04-19T05:13:33;99307.22;;;9.56;81.97
47430;BME280;33181;49.246;7.372;2023-04-19T05:15:59;99311.66;;;9.68;81.70
47430;BME280;33181;49.246;7.372;2023-04-19T05:18:27;99312.06;;;9.62;81.70
47430;BME280;33181;49.246;7.372;2023-04-19T05:20:52;99311.59;;;9.55;82.04
47430;BME280;33181;49.246;7.372;2023-04-19T05:23:18;99307.31;;;9.54;82.34
47430;BME280;33181;49.246;7.372;2023-04-19T05:25:44;99310.38;;;9.61;82.45
47430;BME280;33181;49.246;7.372;2023-04-19T05:28:10;99310.78;;;9.67;81.69
47430;BME280;33181;49.246;7.372;2023-04-19T05:30:35;99305.94;;;9.61;81.67
47430;BME280;33181;49.246;7.372;2023-04-19T05:33:01;99305.94;;;9.61;82.25
47430;BME280;33181;49.246;7.372;2023-04-19T05:35:27;99314.03;;;9.58;82.19
47430;BME280;33181;49.246;7.372;2023-04-19T05:37:52;99313.31;;;9.69;81.85
47430;BME280;33181;49.246;7.372;2023-04-19T05:40:18;99317.63;;;9.70;81.36
47430;BME280;33181;49.246;7.372;2023-04-19T05:42:44;99315.63;;;9.73;81.22
47430;BME280;33181;49.246;7.372;2023-04-19T05:45:10;99317.09;;;9.78;81.26
47430;BME280;33181;49.246;7.372;2023-04-19T05:47:38;99320.84;;;9.73;81.45
47430;BME280;33181;49.246;7.372;2023-04-19T05:50:04;99316.34;;;9.63;81.72
47430;BME280;33181;49.246;7.372;2023-04-19T05:52:30;99326.53;;;9.67;81.69
47430;BME280;33181;49.246;7.372;2023-04-19T05:54:57;99325.59;;;9.68;82.08
47430;BME280;33181;49.246;7.372;2023-04-19T05:57:22;99316.91;;;9.68;81.85
47430;BME280;33181;49.246;7.372;2023-04-19T05:59:48;99319.41;;;9.69;81.82
47430;BME280;33181;49.246;7.372;2023-04-19T06:02:14;99326.63;;;9.66;81.70
47430;BME280;33181;49.246;7.372;2023-04-19T06:04:40;99321.28;;;9.67;82.30
47430;BME280;33181;49.246;7.372;2023-04-19T06:07:06;99327.25;;;9.69;82.02
47430;BME280;33181;49.246;7.372;2023-04-19T06:09:32;99324.97;;;9.65;82.27
47430;BME280;33181;49.246;7.372;2023-04-19T06:11:58;99328.72;;;9.61;82.41
47430;BME280;33181;49.246;7.372;2023-04-19T06:14:26;99334.59;;;9.64;82.13
47430;BME280;33181;49.246;7.372;2023-04-19T06:16:52;99336.94;;;9.69;82.23
47430;BME280;33181;49.246;7.372;2023-04-19T06:19:18;99333.88;;;9.62;82.07
47430;BME280;33181;49.246;7.372;2023-04-19T06:21:44;99330.53;;;9.73;82.32
47430;BME280;33181;49.246;7.372;2023-04-19T06:24:10;99334.09;;;9.72;82.41
47430;BME280;33181;49.246;7.372;2023-04-19T06:26:36;99327.19;;;9.84;81.57
47430;BME280;33181;49.246;7.372;2023-04-19T06:29:02;99334.53;;;9.91;81.26
47430;BME280;33181;49.246;7.372;2023-04-19T06:31:28;99335.56;;;9.89;81.40
47430;BME280;33181;49.246;7.372;2023-04-19T06:33:53;99332.09;;;9.88;81.68
47430;BME280;33181;49.246;7.372;2023-04-19T06:36:19;99333.69;;;9.91;81.31
47430;BME280;33181;49.246;7.372;2023-04-19T06:38:45;99334.31;;;9.94;81.41
47430;BME280;33181;49.246;7.372;2023-04-19T06:41:11;99337.78;;;9.95;81.32
47430;BME280;33181;49.246;7.372;2023-04-19T06:43:40;99341.84;;;9.99;80.75
47430;BME280;33181;49.246;7.372;2023-04-19T06:46:07;99339.13;;;10.13;80.22
47430;BME280;33181;49.246;7.372;2023-04-19T06:48:34;99343.00;;;10.20;79.96
47430;BME280;33181;49.246;7.372;2023-04-19T06:51:00;99337.88;;;10.19;79.65
47430;BME280;33181;49.246;7.372;2023-04-19T06:53:26;99341.78;;;10.26;79.73
47430;BME280;33181;49.246;7.372;2023-04-19T06:56:00;99347.19;;;10.23;79.27
47430;BME280;33181;49.246;7.372;2023-04-19T06:58:27;99344.19;;;10.29;79.47
47430;BME280;33181;49.246;7.372;2023-04-19T07:00:56;99330.72;;;10.34;79.54
47430;BME280;33181;49.246;7.372;2023-04-19T07:03:21;99326.94;;;10.38;79.08
47430;BME280;33181;49.246;7.372;2023-04-19T07:05:47;99327.66;;;10.40;78.40
47430;BME280;33181;49.246;7.372;2023-04-19T07:08:14;99335.31;;;10.43;78.71
47430;BME280;33181;49.246;7.372;2023-04-19T07:10:40;99326.09;;;10.50;78.25
47430;BME280;33181;49.246;7.372;2023-04-19T07:13:11;99328.91;;;10.60;78.17
47430;BME280;33181;49.246;7.372;2023-04-19T07:15:36;99331.19;;;10.64;77.81
47430;BME280;33181;49.246;7.372;2023-04-19T07:18:02;99316.66;;;10.72;77.63
47430;BME280;33181;49.246;7.372;2023-04-19T07:20:28;99327.09;;;10.84;76.99
47430;BME280;33181;49.246;7.372;2023-04-19T07:22:57;99326.97;;;10.99;76.55
47430;BME280;33181;49.246;7.372;2023-04-19T07:25:23;99326.59;;;11.03;75.96
47430;BME280;33181;49.246;7.372;2023-04-19T07:27:51;99337.75;;;11.07;75.72
47430;BME280;33181;49.246;7.372;2023-04-19T07:30:18;99326.84;;;11.00;75.67
47430;BME280;33181;49.246;7.372;2023-04-19T07:32:43;99308.88;;;11.18;75.09
47430;BME280;33181;49.246;7.372;2023-04-19T07:35:10;99328.78;;;11.09;74.86
47430;BME280;33181;49.246;7.372;2023-04-19T07:37:36;99319.78;;;11.25;74.88
47430;BME280;33181;49.246;7.372;2023-04-19T07:40:03;99323.66;;;11.32;74.64
47430;BME280;33181;49.246;7.372;2023-04-19T07:42:30;99328.59;;;11.48;74.09
47430;BME280;33181;49.246;7.372;2023-04-19T07:44:58;99325.75;;;11.51;72.69
47430;BME280;33181;49.246;7.372;2023-04-19T07:47:24;99325.59;;;11.52;72.18
47430;BME280;33181;49.246;7.372;2023-04-19T07:49:54;99315.00;;;11.65;71.44
47430;BME280;33181;49.246;7.372;2023-04-19T07:52:20;99327.09;;;11.68;70.73
47430;BME280;33181;49.246;7.372;2023-04-19T07:54:46;99314.66;;;11.81;71.51
47430;BME280;33181;49.246;7.372;2023-04-19T07:57:12;99325.13;;;12.05;70.90
47430;BME280;33181;49.246;7.372;2023-04-19T07:59:38;99322.50;;;12.16;69.62
47430;BME280;33181;49.246;7.372;2023-04-19T08:02:03;99316.84;;;12.32;69.25
47430;BME280;33181;49.246;7.372;2023-04-19T08:04:30;99309.31;;;12.61;68.43
47430;BME280;33181;49.246;7.372;2023-04-19T08:06:55;99311.91;;;13.05;67.20
47430;BME280;33181;49.246;7.372;2023-04-19T08:09:21;99308.66;;;13.44;66.21
47430;BME280;33181;49.246;7.372;2023-04-19T08:11:47;99306.91;;;13.97;63.13
47430;BME280;33181;49.246;7.372;2023-04-19T08:14:13;99307.00;;;13.95;62.26
47430;BME280;33181;49.246;7.372;2023-04-19T08:16:39;99304.53;;;13.73;61.96
47430;BME280;33181;49.246;7.372;2023-04-19T08:19:05;99305.88;;;13.25;63.52
47430;BME280;33181;49.246;7.372;2023-04-19T08:21:31;99304.66;;;12.86;64.22
47430;BME280;33181;49.246;7.372;2023-04-19T08:23:56;99308.81;;;12.67;65.76
47430;BME280;33181;49.246;7.372;2023-04-19T08:26:22;99308.47;;;12.38;66.18
47430;BME280;33181;49.246;7.372;2023-04-19T08:28:48;99309.69;;;12.34;66.52
47430;BME280;33181;49.246;7.372;2023-04-19T08:31:15;99300.56;;;12.38;67.14
47430;BME280;33181;49.246;7.372;2023-04-19T08:33:41;99292.75;;;12.70;66.06
47430;BME280;33181;49.246;7.372;2023-04-19T08:36:07;99302.34;;;12.92;64.72
47430;BME280;33181;49.246;7.372;2023-04-19T08:38:33;99299.22;;;12.98;65.46
47430;BME280;33181;49.246;7.372;2023-04-19T08:41:00;99293.75;;;13.22;64.08
47430;BME280;33181;49.246;7.372;2023-04-19T08:43:29;99296.03;;;13.48;63.76
47430;BME280;33181;49.246;7.372;2023-04-19T08:46:00;99302.50;;;13.23;64.29
47430;BME280;33181;49.246;7.372;2023-04-19T08:48:27;99296.38;;;13.22;64.67
47430;BME280;33181;49.246;7.372;2023-04-19T08:50:55;99294.97;;;13.18;64.78
47430;BME280;33181;49.246;7.372;2023-04-19T08:53:22;99295.06;;;13.28;64.13
47430;BME280;33181;49.246;7.372;2023-04-19T08:55:49;99289.47;;;13.10;64.62
47430;BME280;33181;49.246;7.372;2023-04-19T08:58:16;99281.78;;;12.86;65.03
47430;BME280;33181;49.246;7.372;2023-04-19T09:00:41;99274.53;;;12.99;65.20
47430;BME280;33181;49.246;7.372;2023-04-19T09:03:07;99273.47;;;13.23;65.24
47430;BME280;33181;49.246;7.372;2023-04-19T09:05:33;99278.47;;;13.37;64.53
47430;BME280;33181;49.246;7.372;2023-04-19T09:11:00;99283.19;;;13.34;63.74
47430;BME280;33181;49.246;7.372;2023-04-19T09:13:28;99275.06;;;13.14;63.88
47430;BME280;33181;49.246;7.372;2023-04-19T09:15:54;99278.28;;;12.97;65.26
47430;BME280;33181;49.246;7.372;2023-04-19T09:18:22;99272.91;;;12.87;64.90
47430;BME280;33181;49.246;7.372;2023-04-19T09:20:51;99271.28;;;12.75;65.43
47430;BME280;33181;49.246;7.372;2023-04-19T09:23:26;99266.41;;;12.59;66.57
47430;BME280;33181;49.246;7.372;2023-04-19T09:25:58;99276.97;;;12.48;67.25
47430;BME280;33181;49.246;7.372;2023-04-19T09:28:30;99275.78;;;12.52;67.01
47430;BME280;33181;49.246;7.372;2023-04-19T09:30:56;99270.94;;;12.57;66.89
47430;BME280;33181;49.246;7.372;2023-04-19T09:33:37;99270.34;;;12.65;67.08
47430;BME280;33181;49.246;7.372;2023-04-19T09:36:07;99272.75;;;12.68;67.40
47430;BME280;33181;49.246;7.372;2023-04-19T09:38:47;99261.72;;;12.63;68.14
47430;BME280;33181;49.246;7.372;2023-04-19T09:41:13;99265.66;;;12.68;68.55
47430;BME280;33181;49.246;7.372;2023-04-19T09:43:39;99271.50;;;12.83;67.39
47430;BME280;33181;49.246;7.372;2023-04-19T09:46:07;99265.50;;;12.81;68.40
47430;BME280;33181;49.246;7.372;2023-04-19T09:48:32;99253.53;;;12.77;67.91
47430;BME280;33181;49.246;7.372;2023-04-19T09:51:00;99259.91;;;12.74;67.39
47430;BME280;33181;49.246;7.372;2023-04-19T09:53:28;99251.50;;;12.69;67.92
47430;BME280;33181;49.246;7.372;2023-04-19T09:55:55;99258.69;;;12.79;67.12
47430;BME280;33181;49.246;7.372;2023-04-19T09:58:21;99253.78;;;12.74;67.46
47430;BME280;33181;49.246;7.372;2023-04-19T10:00:48;99252.34;;;12.70;67.55
47430;BME280;33181;49.246;7.372;2023-04-19T10:03:18;99243.03;;;12.66;67.12
47430;BME280;33181;49.246;7.372;2023-04-19T10:05:44;99241.34;;;12.65;67.83
47430;BME280;33181;49.246;7.372;2023-04-19T10:08:12;99237.88;;;12.96;67.62
47430;BME280;33181;49.246;7.372;2023-04-19T10:10:41;99238.38;;;13.11;67.51
47430;BME280;33181;49.246;7.372;2023-04-19T10:13:12;99239.81;;;13.15;66.81
47430;BME280;33181;49.246;7.372;2023-04-19T10:15:43;99239.50;;;13.09;66.76
47430;BME280;33181;49.246;7.372;2023-04-19T10:18:09;99240.31;;;12.88;68.18
47430;BME280;33181;49.246;7.372;2023-04-19T10:20:49;99237.88;;;12.96;68.22
47430;BME280;33181;49.246;7.372;2023-04-19T10:23:16;99241.69;;;13.04;68.03
47430;BME280;33181;49.246;7.372;2023-04-19T10:25:46;99235.50;;;12.93;68.59
47430;BME280;33181;49.246;7.372;2023-04-19T10:28:13;99233.53;;;12.95;69.13
47430;BME280;33181;49.246;7.372;2023-04-19T10:31:03;99231.06;;;12.94;68.79
47430;BME280;33181;49.246;7.372;2023-04-19T10:33:39;99230.31;;;12.71;69.77
47430;BME280;33181;49.246;7.372;2023-04-19T10:36:09;99225.97;;;12.81;69.89
47430;BME280;33181;49.246;7.372;2023-04-19T10:38:46;99220.50;;;12.94;69.50
47430;BME280;33181;49.246;7.372;2023-04-19T10:41:20;99225.84;;;13.04;69.41
47430;BME280;33181;49.246;7.372;2023-04-19T10:44:08;99221.38;;;13.15;68.76
47430;BME280;33181;49.246;7.372;2023-04-19T10:46:37;99214.13;;;13.17;68.24
47430;BME280;33181;49.246;7.372;2023-04-19T10:49:05;99216.97;;;13.05;68.56
47430;BME280;33181;49.246;7.372;2023-04-19T10:51:36;99205.97;;;13.20;68.81
47430;BME280;33181;49.246;7.372;2023-04-19T10:54:54;99198.91;;;13.21;68.08
47430;BME280;33181;49.246;7.372;2023-04-19T10:57:20;99196.78;;;13.15;67.28
47430;BME280;33181;49.246;7.372;2023-04-19T11:00:21;99196.19;;;13.11;67.45
47430;BME280;33181;49.246;7.372;2023-04-19T11:02:47;99205.38;;;13.28;67.49
47430;BME280;33181;49.246;7.372;2023-04-19T11:05:13;99196.63;;;13.28;67.78
47430;BME280;33181;49.246;7.372;2023-04-19T11:07:40;99189.97;;;13.33;67.45
47430;BME280;33181;49.246;7.372;2023-04-19T11:10:08;99199.06;;;13.40;67.29
47430;BME280;33181;49.246;7.372;2023-04-19T11:12:34;99200.50;;;13.33;67.20
47430;BME280;33181;49.246;7.372;2023-04-19T11:15:00;99193.47;;;13.34;67.91
47430;BME280;33181;49.246;7.372;2023-04-19T11:17:30;99194.59;;;13.41;67.15
47430;BME280;33181;49.246;7.372;2023-04-19T11:20:09;99183.91;;;13.42;67.54
47430;BME280;33181;49.246;7.372;2023-04-19T11:22:41;99179.53;;;13.53;67.26
47430;BME280;33181;49.246;7.372;2023-04-19T11:25:14;99186.75;;;13.51;67.23
47430;BME280;33181;49.246;7.372;2023-04-19T11:27:51;99178.88;;;13.39;66.77
47430;BME280;33181;49.246;7.372;2023-04-19T11:30:28;99174.84;;;13.35;67.28
47430;BME280;33181;49.246;7.372;2023-04-19T11:32:55;99173.72;;;13.28;67.98
47430;BME280;33181;49.246;7.372;2023-04-19T11:35:24;99168.84;;;13.33;68.27
47430;BME280;33181;49.246;7.372;2023-04-19T11:37:51;99166.38;;;13.32;67.90
47430;BME280;33181;49.246;7.372;2023-04-19T11:40:20;99161.97;;;13.21;67.79
47430;BME280;33181;49.246;7.372;2023-04-19T11:42:56;99164.47;;;13.22;67.77
47430;BME280;33181;49.246;7.372;2023-04-19T11:45:30;99167.50;;;13.18;67.44
47430;BME280;33181;49.246;7.372;2023-04-19T11:47:56;99143.00;;;12.85;68.95
47430;BME280;33181;49.246;7.372;2023-04-19T11:50:42;99154.97;;;12.89;69.39
47430;BME280;33181;49.246;7.372;2023-04-19T11:53:21;99141.41;;;12.94;69.74
47430;BME280;33181;49.246;7.372;2023-04-19T11:55:52;99148.47;;;12.51;71.07
47430;BME280;33181;49.246;7.372;2023-04-19T11:58:25;99147.09;;;12.57;71.91
47430;BME280;33181;49.246;7.372;2023-04-19T12:00:54;99148.94;;;12.78;71.60
47430;BME280;33181;49.246;7.372;2023-04-19T12:03:22;99147.06;;;12.89;71.29
47430;BME280;33181;49.246;7.372;2023-04-19T12:05:56;99149.28;;;12.73;71.01
47430;BME280;33181;49.246;7.372;2023-04-19T12:08:32;99152.47;;;12.88;70.95
47430;BME280;33181;49.246;7.372;2023-04-19T12:10:59;99146.94;;;12.91;70.95
47430;BME280;33181;49.246;7.372;2023-04-19T12:13:25;99150.59;;;12.99;70.06
47430;BME280;33181;49.246;7.372;2023-04-19T12:15:51;99151.09;;;13.14;70.90
47430;BME280;33181;49.246;7.372;2023-04-19T12:18:17;99150.50;;;13.11;70.02
47430;BME280;33181;49.246;7.372;2023-04-19T12:20:45;99151.94;;;13.15;69.52
47430;BME280;33181;49.246;7.372;2023-04-19T12:23:15;99146.47;;;13.07;69.87
47430;BME280;33181;49.246;7.372;2023-04-19T12:25:44;99147.09;;;13.20;68.19
47430;BME280;33181;49.246;7.372;2023-04-19T12:28:11;99137.78;;;13.37;63.96
47430;BME280;33181;49.246;7.372;2023-04-19T12:30:38;99147.53;;;13.46;62.21
47430;BME280;33181;49.246;7.372;2023-04-19T12:33:06;99142.59;;;13.53;61.86
47430;BME280;33181;49.246;7.372;2023-04-19T12:35:32;99133.03;;;13.71;60.68
47430;BME280;33181;49.246;7.372;2023-04-19T12:37:59;99127.56;;;13.94;59.82
47430;BME280;33181;49.246;7.372;2023-04-19T12:40:26;99123.50;;;13.89;59.47
47430;BME280;33181;49.246;7.372;2023-04-19T12:42:52;99120.06;;;14.08;58.90
47430;BME280;33181;49.246;7.372;2023-04-19T12:45:19;99123.84;;;14.16;58.87
47430;BME280;33181;49.246;7.372;2023-04-19T12:47:46;99124.94;;;14.03;59.09
47430;BME280;33181;49.246;7.372;2023-04-19T12:50:13;99124.41;;;14.09;59.38
47430;BME280;33181;49.246;7.372;2023-04-19T12:52:41;99117.56;;;13.97;59.77
47430;BME280;33181;49.246;7.372;2023-04-19T12:55:08;99117.56;;;14.07;60.25
47430;BME280;33181;49.246;7.372;2023-04-19T12:57:34;99101.88;;;14.34;59.76
47430;BME280;33181;49.246;7.372;2023-04-19T12:59:59;99092.53;;;14.40;59.18
47430;BME280;33181;49.246;7.372;2023-04-19T13:02:25;99092.81;;;14.47;58.70
47430;BME280;33181;49.246;7.372;2023-04-19T13:04:51;99100.78;;;14.66;58.50
47430;BME280;33181;49.246;7.372;2023-04-19T13:07:17;99086.88;;;14.64;59.08